sensor_id;sensor_type;location;lat;lon;timestamp;P1;durP1;ratioP1;P2;durP2;ratioP2
10063;SDS011;5071;52.360;13.134;2023-04-24T00:01:33;4.33;;;3.53;;
10063;SDS011;5071;52.360;13.134;2023-04-24T00:06:35;13.07;;;3.97;;
10063;SDS011;5071;52.360;13.134;2023-04-24T00:11:39;5.73;;;3.63;;
10063;SDS011;5071;52.360;13.134;2023-04-24T00:16:41;4.93;;;3.47;;
10063;SDS011;5071;52.360;13.134;2023-04-24T00:21:43;3.97;;;3.57;;
10063;SDS011;5071;52.360;13.134;2023-04-24T00:26:46;4.70;;;4.23;;
10063;SDS011;5071;52.360;13.134;2023-04-24T00:31:48;5.50;;;3.20;;
10063;SDS011;5071;52.360;13.134;2023-04-24T00:36:50;4.20;;;3.80;;
10063;SDS011;5071;52.360;13.134;2023-04-24T00:41:53;5.53;;;4.07;;
10063;SDS011;5071;52.360;13.134;2023-04-24T00:46:55;5.70;;;3.97;;
10063;SDS011;5071;52.360;13.134;2023-04-24T00:51:58;4.03;;;3.40;;
10063;SDS011;5071;52.360;13.134;2023-04-24T00:57:01;5.23;;;3.80;;
10063;SDS011;5071;52.360;13.134;2023-04-24T01:02:04;4.73;;;3.93;;
10063;SDS011;5071;52.360;13.134;2023-04-24T01:07:05;5.73;;;4.27;;
10063;SDS011;5071;52.360;13.134;2023-04-24T01:12:09;4.47;;;4.07;;
10063;SDS011;5071;52.360;13.134;2023-04-24T01:17:11;5.13;;;4.20;;
10063;SDS011;5071;52.360;13.134;2023-04-24T01:22:15;5.70;;;4.47;;
10063;SDS011;5071;52.360;13.134;2023-04-24T01:27:17;6.87;;;3.83;;
10063;SDS011;5071;52.360;13.134;2023-04-24T01:32:19;4.30;;;3.60;;
10063;SDS011;5071;52.360;13.134;2023-04-24T01:37:22;4.97;;;3.90;;
10063;SDS011;5071;52.360;13.134;2023-04-24T01:42:24;5.87;;;3.93;;
10063;SDS011;5071;52.360;13.134;2023-04-24T01:47:26;4.17;;;3.77;;
10063;SDS011;5071;52.360;13.134;2023-04-24T01:52:30;5.50;;;4.13;;
10063;SDS011;5071;52.360;13.134;2023-04-24T01:57:32;4.53;;;3.83;;
10063;SDS011;5071;52.360;13.134;2023-04-24T02:02:35;4.57;;;3.80;;
10063;SDS011;5071;52.360;13.134;2023-04-24T02:07:39;4.20;;;3.60;;
10063;SDS011;5071;52.360;13.134;2023-04-24T02:12:41;4.33;;;3.83;;
10063;SDS011;5071;52.360;13.134;2023-04-24T02:17:43;8.23;;;4.10;;
10063;SDS011;5071;52.360;13.134;2023-04-24T02:22:46;6.77;;;3.90;;
10063;SDS011;5071;52.360;13.134;2023-04-24T02:27:48;4.30;;;3.53;;
10063;SDS011;5071;52.360;13.134;2023-04-24T02:32:50;4.40;;;3.57;;
10063;SDS011;5071;52.360;13.134;2023-04-24T02:37:53;4.47;;;3.83;;
10063;SDS011;5071;52.360;13.134;2023-04-24T02:42:55;5.73;;;4.10;;
10063;SDS011;5071;52.360;13.134;2023-04-24T02:47:57;5.37;;;4.70;;
10063;SDS011;5071;52.360;13.134;2023-04-24T02:53:00;5.47;;;4.40;;
10063;SDS011;5071;52.360;13.134;2023-04-24T02:58:02;5.33;;;4.63;;
10063;SDS011;5071;52.360;13.134;2023-04-24T03:03:04;7.10;;;4.87;;
10063;SDS011;5071;52.360;13.134;2023-04-24T03:08:08;4.43;;;4.03;;
10063;SDS011;5071;52.360;13.134;2023-04-24T03:13:10;6.17;;;4.93;;
10063;SDS011;5071;52.360;13.134;2023-04-24T03:18:12;7.03;;;4.70;;
10063;SDS011;5071;52.360;13.134;2023-04-24T03:23:15;5.27;;;4.17;;
10063;SDS011;5071;52.360;13.134;2023-04-24T03:28:17;5.90;;;4.13;;
10063;SDS011;5071;52.360;13.134;2023-04-24T03:33:19;5.20;;;4.47;;
10063;SDS011;5071;52.360;13.134;2023-04-24T03:38:23;5.60;;;5.00;;
10063;SDS011;5071;52.360;13.134;2023-04-24T03:43:25;7.33;;;4.60;;
10063;SDS011;5071;52.360;13.134;2023-04-24T03:48:27;8.17;;;5.07;;
10063;SDS011;5071;52.360;13.134;2023-04-24T03:53:30;8.20;;;5.10;;
10063;SDS011;5071;52.360;13.134;2023-04-24T03:58:33;7.53;;;4.33;;
10063;SDS011;5071;52.360;13.134;2023-04-24T04:03:34;4.90;;;4.00;;
10063;SDS011;5071;52.360;13.134;2023-04-24T04:08:38;5.33;;;4.13;;
10063;SDS011;5071;52.360;13.134;2023-04-24T04:13:40;5.03;;;4.20;;
10063;SDS011;5071;52.360;13.134;2023-04-24T04:18:42;5.60;;;4.33;;
10063;SDS011;5071;52.360;13.134;2023-04-24T04:23:45;11.07;;;4.57;;
10063;SDS011;5071;52.360;13.134;2023-04-24T04:28:47;5.50;;;4.57;;
10063;SDS011;5071;52.360;13.134;2023-04-24T04:33:49;7.37;;;3.73;;
10063;SDS011;5071;52.360;13.134;2023-04-24T04:38:53;4.27;;;3.50;;
10063;SDS011;5071;52.360;13.134;2023-04-24T04:43:55;5.13;;;3.93;;
10063;SDS011;5071;52.360;13.134;2023-04-24T04:48:57;4.13;;;3.50;;
10063;SDS011;5071;52.360;13.134;2023-04-24T04:54:01;4.77;;;4.07;;
10063;SDS011;5071;52.360;13.134;2023-04-24T04:59:03;3.60;;;2.90;;
10063;SDS011;5071;52.360;13.134;2023-04-24T05:04:05;3.90;;;2.73;;
10063;SDS011;5071;52.360;13.134;2023-04-24T05:09:09;2.80;;;2.07;;
10063;SDS011;5071;52.360;13.134;2023-04-24T05:14:11;2.93;;;2.23;;
10063;SDS011;5071;52.360;13.134;2023-04-24T05:19:13;2.20;;;2.00;;
10063;SDS011;5071;52.360;13.134;2023-04-24T05:24:17;2.03;;;1.83;;
10063;SDS011;5071;52.360;13.134;2023-04-24T05:29:19;1.57;;;1.47;;
10063;SDS011;5071;52.360;13.134;2023-04-24T05:34:21;3.43;;;1.47;;
10063;SDS011;5071;52.360;13.134;2023-04-24T05:39:25;1.33;;;1.23;;
10063;SDS011;5071;52.360;13.134;2023-04-24T05:44:27;1.70;;;1.30;;
10063;SDS011;5071;52.360;13.134;2023-04-24T05:49:29;1.60;;;1.20;;
10063;SDS011;5071;52.360;13.134;2023-04-24T05:54:32;1.93;;;1.10;;
10063;SDS011;5071;52.360;13.134;2023-04-24T05:59:36;1.13;;;0.97;;
10063;SDS011;5071;52.360;13.134;2023-04-24T06:04:39;2.13;;;0.73;;
10063;SDS011;5071;52.360;13.134;2023-04-24T06:09:43;1.20;;;1.10;;
10063;SDS011;5071;52.360;13.134;2023-04-24T06:14:45;0.90;;;0.80;;
10063;SDS011;5071;52.360;13.134;2023-04-24T06:19:47;1.33;;;0.90;;
10063;SDS011;5071;52.360;13.134;2023-04-24T06:24:50;1.27;;;1.00;;
10063;SDS011;5071;52.360;13.134;2023-04-24T06:29:52;0.67;;;0.67;;
10063;SDS011;5071;52.360;13.134;2023-04-24T06:34:55;0.93;;;0.77;;
10063;SDS011;5071;52.360;13.134;2023-04-24T06:40:00;0.57;;;0.57;;
10063;SDS011;5071;52.360;13.134;2023-04-24T06:45:03;1.67;;;0.50;;
10063;SDS011;5071;52.360;13.134;2023-04-24T06:50:05;1.60;;;0.70;;
10063;SDS011;5071;52.360;13.134;2023-04-24T06:55:09;0.53;;;0.40;;
10063;SDS011;5071;52.360;13.134;2023-04-24T07:00:12;0.60;;;0.60;;
10063;SDS011;5071;52.360;13.134;2023-04-24T07:05:15;0.70;;;0.60;;
10063;SDS011;5071;52.360;13.134;2023-04-24T07:10:18;1.17;;;0.63;;
10063;SDS011;5071;52.360;13.134;2023-04-24T07:15:20;2.50;;;0.60;;
10063;SDS011;5071;52.360;13.134;2023-04-24T07:20:23;1.73;;;0.60;;
10063;SDS011;5071;52.360;13.134;2023-04-24T07:25:26;1.43;;;0.70;;
10063;SDS011;5071;52.360;13.134;2023-04-24T07:30:28;0.60;;;0.60;;
10063;SDS011;5071;52.360;13.134;2023-04-24T07:35:29;1.00;;;0.50;;
10063;SDS011;5071;52.360;13.134;2023-04-24T07:40:33;0.57;;;0.40;;
10063;SDS011;5071;52.360;13.134;2023-04-24T07:45:35;1.47;;;0.57;;
10063;SDS011;5071;52.360;13.134;2023-04-24T07:50:37;1.33;;;0.67;;
10063;SDS011;5071;52.360;13.134;2023-04-24T07:55:40;1.80;;;0.70;;
10063;SDS011;5071;52.360;13.134;2023-04-24T08:00:43;0.57;;;0.57;;
10063;SDS011;5071;52.360;13.134;2023-04-24T08:05:44;2.50;;;0.50;;
10063;SDS011;5071;52.360;13.134;2023-04-24T08:10:48;8.87;;;5.23;;
10063;SDS011;5071;52.360;13.134;2023-04-24T08:15:50;7.23;;;3.50;;
10063;SDS011;5071;52.360;13.134;2023-04-24T08:20:52;1.63;;;0.70;;
10063;SDS011;5071;52.360;13.134;2023-04-24T08:25:55;2.10;;;1.40;;
10063;SDS011;5071;52.360;13.134;2023-04-24T08:30:57;1.97;;;0.80;;
10063;SDS011;5071;52.360;13.134;2023-04-24T08:36:00;4.43;;;1.97;;
10063;SDS011;5071;52.360;13.134;2023-04-24T08:41:03;1.53;;;1.43;;
10063;SDS011;5071;52.360;13.134;2023-04-24T08:46:06;1.47;;;0.60;;
10063;SDS011;5071;52.360;13.134;2023-04-24T08:51:12;0.97;;;0.53;;
10063;SDS011;5071;52.360;13.134;2023-04-24T08:56:16;0.90;;;0.60;;
10063;SDS011;5071;52.360;13.134;2023-04-24T09:01:18;3.30;;;0.40;;
10063;SDS011;5071;52.360;13.134;2023-04-24T09:06:21;0.80;;;0.57;;
10063;SDS011;5071;52.360;13.134;2023-04-24T09:11:26;0.70;;;0.70;;
10063;SDS011;5071;52.360;13.134;2023-04-24T09:16:28;1.27;;;0.60;;
10063;SDS011;5071;52.360;13.134;2023-04-24T09:21:31;1.20;;;0.70;;
10063;SDS011;5071;52.360;13.134;2023-04-24T09:26:35;0.40;;;0.40;;
10063;SDS011;5071;52.360;13.134;2023-04-24T09:31:38;1.03;;;0.57;;
10063;SDS011;5071;52.360;13.134;2023-04-24T09:36:41;0.60;;;0.60;;
10063;SDS011;5071;52.360;13.134;2023-04-24T09:41:45;2.13;;;1.40;;
10063;SDS011;5071;52.360;13.134;2023-04-24T09:46:49;2.37;;;1.90;;
10063;SDS011;5071;52.360;13.134;2023-04-24T09:51:52;3.80;;;1.40;;
10063;SDS011;5071;52.360;13.134;2023-04-24T09:57:06;1.20;;;0.80;;
10063;SDS011;5071;52.360;13.134;2023-04-24T10:02:16;1.67;;;0.60;;
10063;SDS011;5071;52.360;13.134;2023-04-24T10:07:19;1.37;;;0.60;;
10063;SDS011;5071;52.360;13.134;2023-04-24T10:12:23;4.50;;;0.60;;
10063;SDS011;5071;52.360;13.134;2023-04-24T10:17:26;3.23;;;0.60;;
10063;SDS011;5071;52.360;13.134;2023-04-24T10:22:30;5.00;;;0.67;;
10063;SDS011;5071;52.360;13.134;2023-04-24T10:27:34;1.43;;;0.50;;
10063;SDS011;5071;52.360;13.134;2023-04-24T10:32:37;5.10;;;1.13;;
10063;SDS011;5071;52.360;13.134;2023-04-24T10:37:40;0.40;;;0.40;;
10063;SDS011;5071;52.360;13.134;2023-04-24T10:42:48;1.47;;;0.50;;
10063;SDS011;5071;52.360;13.134;2023-04-24T10:47:56;0.57;;;0.47;;
10063;SDS011;5071;52.360;13.134;2023-04-24T10:53:05;0.83;;;0.50;;
10063;SDS011;5071;52.360;13.134;2023-04-24T10:58:10;0.90;;;0.70;;
10063;SDS011;5071;52.360;13.134;2023-04-24T11:03:25;0.93;;;0.60;;
10063;SDS011;5071;52.360;13.134;2023-04-24T11:08:30;0.53;;;0.50;;
10063;SDS011;5071;52.360;13.134;2023-04-24T11:19:20;1.00;;;0.70;;
10063;SDS011;5071;52.360;13.134;2023-04-24T11:24:27;0.50;;;0.50;;
10063;SDS011;5071;52.360;13.134;2023-04-24T11:29:42;1.37;;;0.70;;
10063;SDS011;5071;52.360;13.134;2023-04-24T11:34:46;0.40;;;0.40;;
10063;SDS011;5071;52.360;13.134;2023-04-24T11:39:53;0.70;;;0.50;;
10063;SDS011;5071;52.360;13.134;2023-04-24T11:44:57;1.03;;;0.70;;
10063;SDS011;5071;52.360;13.134;2023-04-24T11:49:59;0.50;;;0.50;;
10063;SDS011;5071;52.360;13.134;2023-04-24T11:55:03;0.50;;;0.50;;
10063;SDS011;5071;52.360;13.134;2023-04-24T12:00:08;3.27;;;0.50;;
10063;SDS011;5071;52.360;13.134;2023-04-24T12:05:20;0.47;;;0.47;;
10063;SDS011;5071;52.360;13.134;2023-04-24T12:10:25;0.70;;;0.60;;
10063;SDS011;5071;52.360;13.134;2023-04-24T12:15:29;0.60;;;0.60;;
10063;SDS011;5071;52.360;13.134;2023-04-24T12:20:32;0.50;;;0.50;;
10063;SDS011;5071;52.360;13.134;2023-04-24T12:25:34;0.50;;;0.50;;
10063;SDS011;5071;52.360;13.134;2023-04-24T12:30:40;1.03;;;0.50;;
10063;SDS011;5071;52.360;13.134;2023-04-24T12:35:43;0.50;;;0.40;;
10063;SDS011;5071;52.360;13.134;2023-04-24T12:40:46;0.70;;;0.70;;
10063;SDS011;5071;52.360;13.134;2023-04-24T12:45:49;0.50;;;0.50;;
10063;SDS011;5071;52.360;13.134;2023-04-24T12:50:51;1.43;;;0.50;;
10063;SDS011;5071;52.360;13.134;2023-04-24T12:55:53;0.93;;;0.93;;
10063;SDS011;5071;52.360;13.134;2023-04-24T13:00:57;2.13;;;0.50;;
10063;SDS011;5071;52.360;13.134;2023-04-24T13:05:59;0.50;;;0.40;;
10063;SDS011;5071;52.360;13.134;2023-04-24T13:11:01;0.50;;;0.50;;
10063;SDS011;5071;52.360;13.134;2023-04-24T13:16:05;0.80;;;0.50;;
10063;SDS011;5071;52.360;13.134;2023-04-24T13:21:08;0.50;;;0.37;;
10063;SDS011;5071;52.360;13.134;2023-04-24T13:26:10;0.40;;;0.40;;
10063;SDS011;5071;52.360;13.134;2023-04-24T13:31:13;0.80;;;0.67;;
10063;SDS011;5071;52.360;13.134;2023-04-24T13:36:16;0.60;;;0.60;;
10063;SDS011;5071;52.360;13.134;2023-04-24T13:41:18;1.37;;;0.40;;
10063;SDS011;5071;52.360;13.134;2023-04-24T13:46:22;0.40;;;0.40;;
10063;SDS011;5071;52.360;13.134;2023-04-24T13:51:24;0.50;;;0.40;;
10063;SDS011;5071;52.360;13.134;2023-04-24T13:56:27;0.93;;;0.60;;
10063;SDS011;5071;52.360;13.134;2023-04-24T14:01:30;0.40;;;0.40;;
10063;SDS011;5071;52.360;13.134;2023-04-24T14:06:33;0.47;;;0.47;;
10063;SDS011;5071;52.360;13.134;2023-04-24T14:11:35;0.67;;;0.63;;
10063;SDS011;5071;52.360;13.134;2023-04-24T14:16:38;0.93;;;0.67;;
10063;SDS011;5071;52.360;13.134;2023-04-24T14:21:41;0.60;;;0.60;;
10063;SDS011;5071;52.360;13.134;2023-04-24T14:26:43;0.50;;;0.50;;
10063;SDS011;5071;52.360;13.134;2023-04-24T14:31:46;2.20;;;0.70;;
10063;SDS011;5071;52.360;13.134;2023-04-24T14:36:48;0.60;;;0.60;;
10063;SDS011;5071;52.360;13.134;2023-04-24T14:41:51;0.60;;;0.60;;
10063;SDS011;5071;52.360;13.134;2023-04-24T14:46:54;1.60;;;0.60;;
10063;SDS011;5071;52.360;13.134;2023-04-24T14:51:56;2.00;;;0.70;;
10063;SDS011;5071;52.360;13.134;2023-04-24T14:56:58;0.80;;;0.80;;
10063;SDS011;5071;52.360;13.134;2023-04-24T15:02:01;1.63;;;0.70;;
10063;SDS011;5071;52.360;13.134;2023-04-24T15:07:18;5.03;;;0.93;;
10063;SDS011;5071;52.360;13.134;2023-04-24T15:12:20;0.57;;;0.57;;
10063;SDS011;5071;52.360;13.134;2023-04-24T15:17:24;0.73;;;0.70;;
10063;SDS011;5071;52.360;13.134;2023-04-24T15:22:26;0.60;;;0.60;;
10063;SDS011;5071;52.360;13.134;2023-04-24T15:27:38;1.00;;;0.70;;
10063;SDS011;5071;52.360;13.134;2023-04-24T15:32:42;0.57;;;0.57;;
10063;SDS011;5071;52.360;13.134;2023-04-24T15:37:44;1.27;;;0.50;;
10063;SDS011;5071;52.360;13.134;2023-04-24T15:42:47;0.60;;;0.60;;
10063;SDS011;5071;52.360;13.134;2023-04-24T15:47:50;1.20;;;0.60;;
10063;SDS011;5071;52.360;13.134;2023-04-24T15:52:52;0.80;;;0.60;;
10063;SDS011;5071;52.360;13.134;2023-04-24T15:57:54;0.77;;;0.77;;
10063;SDS011;5071;52.360;13.134;2023-04-24T16:02:58;0.63;;;0.60;;
10063;SDS011;5071;52.360;13.134;2023-04-24T16:08:01;0.87;;;0.80;;
10063;SDS011;5071;52.360;13.134;2023-04-24T16:13:03;3.97;;;0.70;;
10063;SDS011;5071;52.360;13.134;2023-04-24T16:18:07;1.60;;;0.67;;
10063;SDS011;5071;52.360;13.134;2023-04-24T16:23:09;0.50;;;0.50;;
10063;SDS011;5071;52.360;13.134;2023-04-24T16:28:11;0.60;;;0.60;;
10063;SDS011;5071;52.360;13.134;2023-04-24T16:33:14;0.90;;;0.70;;
10063;SDS011;5071;52.360;13.134;2023-04-24T16:38:16;1.17;;;0.70;;
10063;SDS011;5071;52.360;13.134;2023-04-24T16:43:19;0.50;;;0.50;;
10063;SDS011;5071;52.360;13.134;2023-04-24T16:48:22;0.60;;;0.60;;
10063;SDS011;5071;52.360;13.134;2023-04-24T16:53:24;1.23;;;0.70;;
10063;SDS011;5071;52.360;13.134;2023-04-24T16:58:26;0.87;;;0.70;;
10063;SDS011;5071;52.360;13.134;2023-04-24T17:03:30;0.73;;;0.70;;
10063;SDS011;5071;52.360;13.134;2023-04-24T17:08:32;0.70;;;0.70;;
10063;SDS011;5071;52.360;13.134;2023-04-24T17:13:35;1.00;;;0.50;;
10063;SDS011;5071;52.360;13.134;2023-04-24T17:18:38;0.40;;;0.37;;
10063;SDS011;5071;52.360;13.134;2023-04-24T17:23:40;0.70;;;0.60;;
10063;SDS011;5071;52.360;13.134;2023-04-24T17:28:43;0.70;;;0.70;;
10063;SDS011;5071;52.360;13.134;2023-04-24T17:33:47;0.40;;;0.40;;
10063;SDS011;5071;52.360;13.134;2023-04-24T17:38:49;0.47;;;0.43;;
10063;SDS011;5071;52.360;13.134;2023-04-24T17:43:51;0.57;;;0.57;;
10063;SDS011;5071;52.360;13.134;2023-04-24T17:48:55;0.60;;;0.60;;
10063;SDS011;5071;52.360;13.134;2023-04-24T17:53:57;0.60;;;0.60;;
10063;SDS011;5071;52.360;13.134;2023-04-24T17:58:59;0.70;;;0.67;;
10063;SDS011;5071;52.360;13.134;2023-04-24T18:04:02;0.40;;;0.40;;
10063;SDS011;5071;52.360;13.134;2023-04-24T18:09:05;0.60;;;0.60;;
10063;SDS011;5071;52.360;13.134;2023-04-24T18:14:07;0.30;;;0.30;;
10063;SDS011;5071;52.360;13.134;2023-04-24T18:19:11;0.33;;;0.33;;
10063;SDS011;5071;52.360;13.134;2023-04-24T18:24:13;0.17;;;0.17;;
10063;SDS011;5071;52.360;13.134;2023-04-24T18:29:15;0.40;;;0.23;;
10063;SDS011;5071;52.360;13.134;2023-04-24T18:34:18;0.23;;;0.20;;
10063;SDS011;5071;52.360;13.134;2023-04-24T18:39:20;0.20;;;0.20;;
10063;SDS011;5071;52.360;13.134;2023-04-24T18:44:23;0.40;;;0.33;;
10063;SDS011;5071;52.360;13.134;2023-04-24T18:49:27;2.43;;;0.33;;
10063;SDS011;5071;52.360;13.134;2023-04-24T18:54:29;0.30;;;0.30;;
10063;SDS011;5071;52.360;13.134;2023-04-24T18:59:31;0.27;;;0.27;;
10063;SDS011;5071;52.360;13.134;2023-04-24T19:04:35;0.30;;;0.30;;
10063;SDS011;5071;52.360;13.134;2023-04-24T19:09:37;0.73;;;0.53;;
10063;SDS011;5071;52.360;13.134;2023-04-24T19:14:39;1.23;;;0.70;;
10063;SDS011;5071;52.360;13.134;2023-04-24T19:19:43;1.77;;;1.00;;
10063;SDS011;5071;52.360;13.134;2023-04-24T19:24:45;0.80;;;0.80;;
10063;SDS011;5071;52.360;13.134;2023-04-24T19:29:47;1.33;;;0.80;;
10063;SDS011;5071;52.360;13.134;2023-04-24T19:34:51;1.37;;;1.00;;
10063;SDS011;5071;52.360;13.134;2023-04-24T19:39:53;0.77;;;0.70;;
10063;SDS011;5071;52.360;13.134;2023-04-24T19:44:55;2.37;;;1.13;;
10063;SDS011;5071;52.360;13.134;2023-04-24T19:49:58;1.37;;;1.20;;
10063;SDS011;5071;52.360;13.134;2023-04-24T19:55:01;1.63;;;0.80;;
10063;SDS011;5071;52.360;13.134;2023-04-24T20:00:03;1.07;;;0.83;;
10063;SDS011;5071;52.360;13.134;2023-04-24T20:05:08;3.20;;;1.50;;
10063;SDS011;5071;52.360;13.134;2023-04-24T20:10:10;1.30;;;1.13;;
10063;SDS011;5071;52.360;13.134;2023-04-24T20:15:12;1.57;;;1.10;;
10063;SDS011;5071;52.360;13.134;2023-04-24T20:20:16;1.60;;;1.10;;
10063;SDS011;5071;52.360;13.134;2023-04-24T20:25:17;1.53;;;1.03;;
10063;SDS011;5071;52.360;13.134;2023-04-24T20:30:20;2.10;;;1.27;;
10063;SDS011;5071;52.360;13.134;2023-04-24T20:35:23;1.33;;;1.13;;
10063;SDS011;5071;52.360;13.134;2023-04-24T20:40:26;1.33;;;1.07;;
10063;SDS011;5071;52.360;13.134;2023-04-24T20:45:29;1.93;;;1.30;;
10063;SDS011;5071;52.360;13.134;2023-04-24T20:50:33;2.53;;;1.50;;
10063;SDS011;5071;52.360;13.134;2023-04-24T20:55:35;2.03;;;1.53;;
10063;SDS011;5071;52.360;13.134;2023-04-24T21:00:38;2.83;;;1.83;;
10063;SDS011;5071;52.360;13.134;2023-04-24T21:05:41;1.73;;;1.40;;
10063;SDS011;5071;52.360;13.134;2023-04-24T21:10:44;5.13;;;2.10;;
10063;SDS011;5071;52.360;13.134;2023-04-24T21:15:47;2.30;;;1.80;;
10063;SDS011;5071;52.360;13.134;2023-04-24T21:20:51;5.20;;;1.70;;
10063;SDS011;5071;52.360;13.134;2023-04-24T21:25:53;1.67;;;1.57;;
10063;SDS011;5071;52.360;13.134;2023-04-24T21:30:56;2.33;;;1.77;;
10063;SDS011;5071;52.360;13.134;2023-04-24T21:36:00;2.80;;;2.03;;
10063;SDS011;5071;52.360;13.134;2023-04-24T21:41:02;3.07;;;1.90;;
10063;SDS011;5071;52.360;13.134;2023-04-24T21:46:04;3.83;;;2.10;;
10063;SDS011;5071;52.360;13.134;2023-04-24T21:51:08;4.67;;;2.10;;
10063;SDS011;5071;52.360;13.134;2023-04-24T21:56:10;1.77;;;1.67;;
10063;SDS011;5071;52.360;13.134;2023-04-24T22:01:12;2.53;;;1.83;;
10063;SDS011;5071;52.360;13.134;2023-04-24T22:06:16;3.63;;;1.87;;
10063;SDS011;5071;52.360;13.134;2023-04-24T22:11:18;1.60;;;1.50;;
10063;SDS011;5071;52.360;13.134;2023-04-24T22:16:27;3.73;;;1.90;;
10063;SDS011;5071;52.360;13.134;2023-04-24T22:21:33;2.03;;;1.93;;
10063;SDS011;5071;52.360;13.134;2023-04-24T22:26:35;5.90;;;2.30;;
10063;SDS011;5071;52.360;13.134;2023-04-24T22:31:37;2.43;;;1.77;;
10063;SDS011;5071;52.360;13.134;2023-04-24T22:36:41;2.27;;;1.87;;
10063;SDS011;5071;52.360;13.134;2023-04-24T22:41:43;1.73;;;1.57;;
10063;SDS011;5071;52.360;13.134;2023-04-24T22:46:45;2.50;;;2.03;;
10063;SDS011;5071;52.360;13.134;2023-04-24T22:51:48;3.00;;;2.20;;
10063;SDS011;5071;52.360;13.134;2023-04-24T22:56:50;1.70;;;1.60;;
10063;SDS011;5071;52.360;13.134;2023-04-24T23:01:52;2.47;;;1.70;;
10063;SDS011;5071;52.360;13.134;2023-04-24T23:06:55;2.43;;;1.80;;
10063;SDS011;5071;52.360;13.134;2023-04-24T23:11:58;1.77;;;1.50;;
10063;SDS011;5071;52.360;13.134;2023-04-24T23:17:00;2.90;;;1.70;;
10063;SDS011;5071;52.360;13.134;2023-04-24T23:22:04;1.57;;;1.23;;
10063;SDS011;5071;52.360;13.134;2023-04-24T23:27:06;1.67;;;1.00;;
10063;SDS011;5071;52.360;13.134;2023-04-24T23:32:08;3.40;;;1.00;;
10063;SDS011;5071;52.360;13.134;2023-04-24T23:37:11;1.77;;;0.90;;
10063;SDS011;5071;52.360;13.134;2023-04-24T23:42:13;1.83;;;1.00;;
10063;SDS011;5071;52.360;13.134;2023-04-24T23:47:15;3.33;;;1.00;;
10063;SDS011;5071;52.360;13.134;2023-04-24T23:52:19;2.63;;;1.10;;
10063;SDS011;5071;52.360;13.134;2023-04-24T23:57:21;4.33;;;1.50;;
